Time;durP1;ratioP1;P1;durP2;ratioP2;P2;SDS_P1;SDS_P2;PMS_P1;PMS_P2;Temp;Humidity;BMP_temperature;BMP_pressure;BME280_temperature;BME280_humidity;BME280_pressure;Samples;Min_cycle;Max_cycle;Signal;HPM_P1;HPM_P2
2023/10/16 00:01:19;;;;;;;1.83;0.90;;;4.80;99.90;;;;;;4993883;28;20032;-75
2023/10/16 00:03:45;;;;;;;2.17;0.70;;;4.80;99.90;;;;;;4993807;28;20097;-75
2023/10/16 00:06:12;;;;;;;1.67;0.70;;;4.80;99.90;;;;;;4993886;28;20467;-75
2023/10/16 00:08:47;;;;;;;1.13;0.52;;;4.70;99.90;;;;;;4993873;28;20527;-75
2023/10/16 00:11:18;;;;;;;2.20;0.75;;;4.70;99.90;;;;;;4994500;28;20035;-75
2023/10/16 00:13:47;;;;;;;1.77;0.60;;;4.70;99.90;;;;;;4993989;28;20037;-75
2023/10/16 00:16:17;;;;;;;1.98;0.70;;;4.70;99.90;;;;;;4993984;28;20022;-75
2023/10/16 00:18:45;;;;;;;3.47;1.00;;;4.70;99.90;;;;;;4993900;28;20030;-75
2023/10/16 00:21:13;;;;;;;2.13;0.82;;;4.70;99.90;;;;;;4993654;28;20073;-75
2023/10/16 00:23:40;;;;;;;1.30;0.90;;;4.70;99.90;;;;;;4995646;28;20030;-75
2023/10/16 00:26:07;;;;;;;2.20;1.10;;;4.70;99.90;;;;;;4997458;28;20026;-75
2023/10/16 00:28:34;;;;;;;3.83;1.80;;;4.70;99.90;;;;;;4997807;28;20022;-75
2023/10/16 00:31:00;;;;;;;4.47;1.98;;;4.70;99.90;;;;;;4980276;28;20061;-75
2023/10/16 00:33:26;;;;;;;5.20;2.70;;;4.70;99.90;;;;;;4997353;28;20113;-75
2023/10/16 00:35:51;;;;;;;6.28;2.50;;;4.70;99.90;;;;;;4997602;28;20106;-75
2023/10/16 00:38:19;;;;;;;3.97;2.00;;;4.80;99.90;;;;;;4997377;28;20521;-75
2023/10/16 00:43:33;;;;;;;3.80;1.27;;;4.80;99.90;;;;;;4997903;28;20054;-75
2023/10/16 00:46:08;;;;;;;3.17;0.75;;;4.90;99.90;;;;;;4997554;28;20029;-75
2023/10/16 00:48:39;;;;;;;2.80;1.02;;;4.80;99.90;;;;;;4997445;28;20018;-75
2023/10/16 00:51:08;;;;;;;2.80;1.00;;;4.80;99.90;;;;;;4997202;28;20026;-75
2023/10/16 00:53:35;;;;;;;4.05;0.90;;;4.80;99.90;;;;;;4997118;28;20027;-75
2023/10/16 00:56:08;;;;;;;1.65;0.90;;;4.80;99.90;;;;;;4979394;28;20030;-75
2023/10/16 00:58:36;;;;;;;2.35;1.13;;;4.80;99.90;;;;;;4979485;28;20037;-75
2023/10/16 01:01:14;;;;;;;2.10;1.08;;;4.80;99.90;;;;;;4979441;28;20199;-75
2023/10/16 01:03:44;;;;;;;1.80;0.90;;;4.80;99.90;;;;;;4997585;28;20033;-75
2023/10/16 01:06:17;;;;;;;4.30;1.20;;;4.70;99.90;;;;;;4995192;28;20029;-74
2023/10/16 01:08:50;;;;;;;1.40;0.90;;;4.70;99.90;;;;;;4996696;28;20033;-75
2023/10/16 01:11:18;;;;;;;1.55;0.98;;;4.70;99.90;;;;;;4993945;28;20419;-74
2023/10/16 01:13:47;;;;;;;2.00;0.90;;;4.80;99.90;;;;;;4996489;28;20058;-74
2023/10/16 01:16:19;;;;;;;2.67;1.30;;;4.80;99.90;;;;;;4996395;28;20113;-75
2023/10/16 01:18:45;;;;;;;4.28;1.25;;;4.80;99.90;;;;;;4996589;28;20026;-75
2023/10/16 01:21:15;;;;;;;2.95;0.90;;;4.80;99.90;;;;;;4996433;28;20042;-73
2023/10/16 01:23:44;;;;;;;2.40;1.30;;;4.80;99.90;;;;;;4995591;28;20383;-73
2023/10/16 01:26:13;;;;;;;3.95;1.60;;;4.80;99.90;;;;;;4996080;28;20503;-73
2023/10/16 01:28:39;;;;;;;4.93;1.60;;;4.90;99.90;;;;;;4996150;28;20118;-73
2023/10/16 01:31:04;;;;;;;5.38;2.10;;;4.90;99.90;;;;;;4996229;28;20117;-72
2023/10/16 01:33:30;;;;;;;4.25;2.22;;;4.80;99.90;;;;;;4978796;28;20038;-73
2023/10/16 01:35:56;;;;;;;5.28;2.60;;;4.90;99.90;;;;;;4995851;28;20106;-72
2023/10/16 01:38:24;;;;;;;5.85;2.33;;;4.90;99.90;;;;;;4996038;28;20030;-73
2023/10/16 01:43:28;;;;;;;6.70;2.88;;;4.90;99.90;;;;;;4996110;28;20434;-72
2023/10/16 01:45:55;;;;;;;4.38;2.33;;;4.90;99.90;;;;;;5010133;28;20080;-72
2023/10/16 01:48:21;;;;;;;5.28;2.60;;;4.90;99.90;;;;;;5015579;28;20447;-72
2023/10/16 01:50:50;;;;;;;3.55;2.20;;;4.90;99.90;;;;;;4998185;28;20101;-72
2023/10/16 01:53:20;;;;;;;4.28;2.00;;;4.90;99.90;;;;;;5015660;28;20439;-72
2023/10/16 01:55:56;;;;;;;3.92;2.13;;;4.90;99.90;;;;;;5015624;28;20387;-73
2023/10/16 01:58:35;;;;;;;5.93;3.15;;;4.90;99.90;;;;;;5015674;28;20355;-72
2023/10/16 02:01:00;;;;;;;6.28;2.80;;;4.80;99.90;;;;;;4997755;28;20188;-72
2023/10/16 02:03:26;;;;;;;9.50;3.92;;;4.80;99.90;;;;;;5015272;28;20109;-72
2023/10/16 02:05:53;;;;;;;9.35;4.50;;;4.70;99.90;;;;;;4997769;28;20109;-73
2023/10/16 02:08:20;;;;;;;8.38;4.18;;;4.70;99.90;;;;;;5015195;28;20060;-73
2023/10/16 02:10:46;;;;;;;8.15;3.22;;;4.70;99.90;;;;;;4997618;28;20037;-72
2023/10/16 02:13:12;;;;;;;7.20;3.33;;;4.70;99.90;;;;;;5015091;28;20029;-72
2023/10/16 02:15:39;;;;;;;7.43;3.03;;;4.70;99.90;;;;;;5015211;28;20031;-73
2023/10/16 02:18:27;;;;;;;8.65;4.18;;;4.70;99.90;;;;;;5014996;28;20382;-73
2023/10/16 02:20:52;;;;;;;9.30;4.25;;;4.70;99.90;;;;;;5014500;28;20491;-72
2023/10/16 02:23:19;;;;;;;10.60;4.32;;;4.60;99.90;;;;;;4997683;28;20030;-72
2023/10/16 02:25:45;;;;;;;8.93;4.00;;;4.60;99.90;;;;;;5015509;28;20057;-72
2023/10/16 02:28:13;;;;;;;8.77;4.22;;;4.60;99.90;;;;;;4999143;28;20030;-72
2023/10/16 02:30:41;;;;;;;6.65;3.88;;;4.50;99.90;;;;;;5016428;28;20018;-72
2023/10/16 02:33:14;;;;;;;6.50;3.72;;;4.50;99.90;;;;;;5015383;28;20034;-72
2023/10/16 02:35:53;;;;;;;5.45;2.90;;;4.50;99.90;;;;;;5014920;28;20029;-73
2023/10/16 02:38:27;;;;;;;4.68;2.78;;;4.50;99.90;;;;;;5014657;28;20553;-73
2023/10/16 02:40:54;;;;;;;5.10;2.33;;;4.40;99.90;;;;;;4996964;28;20038;-73
2023/10/16 02:43:20;;;;;;;5.70;2.35;;;4.40;99.90;;;;;;5014615;28;20018;-73
2023/10/16 02:45:47;;;;;;;4.68;2.03;;;4.50;99.90;;;;;;5013986;28;20030;-73
2023/10/16 02:48:18;;;;;;;6.22;3.00;;;4.50;99.90;;;;;;5014712;28;20029;-73
2023/10/16 02:50:46;;;;;;;;;;;4.50;99.90;;;;;;4997227;28;20073;-72
2023/10/16 02:53:11;;;;;;;6.43;2.85;;;4.50;99.90;;;;;;5014362;28;19952;-73
2023/10/16 02:55:40;;;;;;;7.18;3.53;;;4.60;99.90;;;;;;5014311;28;20053;-73
2023/10/16 02:58:11;;;;;;;6.90;2.65;;;4.60;99.90;;;;;;5014598;28;20391;-73
2023/10/16 03:00:38;;;;;;;6.45;3.22;;;4.60;99.90;;;;;;5014629;28;20025;-73
2023/10/16 03:03:09;;;;;;;6.53;3.20;;;4.60;99.90;;;;;;5014095;28;20096;-73
2023/10/16 03:05:35;;;;;;;8.50;3.60;;;4.60;99.90;;;;;;5014147;28;20026;-73
2023/10/16 03:08:01;;;;;;;5.93;2.80;;;4.70;99.90;;;;;;5014705;28;20026;-73
2023/10/16 03:10:26;;;;;;;5.95;3.42;;;4.70;99.90;;;;;;5014075;28;20029;-72
2023/10/16 03:12:52;;;;;;;5.93;3.22;;;4.70;99.90;;;;;;4996565;28;20121;-72
2023/10/16 03:15:27;;;;;;;7.63;2.95;;;4.70;99.90;;;;;;5013947;28;20033;-73
2023/10/16 03:17:54;;;;;;;7.43;3.03;;;4.70;99.90;;;;;;4996427;28;20038;-73
2023/10/16 03:20:22;;;;;;;7.78;3.13;;;4.70;99.90;;;;;;5013989;28;20026;-72
2023/10/16 03:22:53;;;;;;;5.88;3.50;;;4.70;99.90;;;;;;5013863;28;20022;-72
2023/10/16 03:25:25;;;;;;;5.85;3.00;;;4.70;99.90;;;;;;5013906;28;20030;-72
2023/10/16 03:27:52;;;;;;;8.27;3.40;;;4.70;99.90;;;;;;5014171;28;20026;-72
2023/10/16 03:30:19;;;;;;;6.18;3.30;;;4.60;99.90;;;;;;5013815;28;20022;-72
2023/10/16 03:32:47;;;;;;;6.20;3.50;;;4.60;99.90;;;;;;4996482;28;20453;-72
2023/10/16 03:35:20;;;;;;;6.25;3.20;;;4.50;99.90;;;;;;5013988;28;20040;-73
2023/10/16 03:37:49;;;;;;;6.70;3.28;;;4.50;99.90;;;;;;5013754;28;20117;-72
2023/10/16 03:40:14;;;;;;;5.85;3.13;;;4.40;99.90;;;;;;5013712;28;20026;-72
2023/10/16 03:42:40;;;;;;;6.88;2.90;;;4.40;99.90;;;;;;4996044;28;20499;-72
2023/10/16 03:45:06;;;;;;;6.80;3.40;;;4.50;99.90;;;;;;5013768;28;20057;-72
2023/10/16 03:47:33;;;;;;;10.43;3.65;;;4.40;99.90;;;;;;4994292;28;20034;-72
2023/10/16 03:49:59;;;;;;;7.68;3.78;;;4.40;99.90;;;;;;4993825;28;20026;-73
2023/10/16 03:52:27;;;;;;;10.20;3.72;;;4.40;99.90;;;;;;4993762;28;20042;-73
2023/10/16 03:54:56;;;;;;;7.57;3.17;;;4.30;99.90;;;;;;4992772;28;20034;-73
2023/10/16 03:57:23;;;;;;;10.80;4.43;;;4.30;99.90;;;;;;4993670;28;20035;-73
2023/10/16 03:59:49;;;;;;;7.47;3.10;;;4.30;99.90;;;;;;4980146;28;20084;-73
2023/10/16 04:02:19;;;;;;;5.88;2.72;;;4.20;99.90;;;;;;4997750;28;20034;-73
2023/10/16 04:04:46;;;;;;;3.65;1.88;;;4.20;99.90;;;;;;4997845;28;20360;-73
2023/10/16 04:07:16;;;;;;;4.30;2.10;;;4.20;99.90;;;;;;4997569;28;20483;-73
2023/10/16 04:09:49;;;;;;;3.88;1.40;;;4.20;99.90;;;;;;4997587;28;20031;-73
2023/10/16 04:12:21;;;;;;;3.85;1.80;;;4.20;99.90;;;;;;4996968;28;20427;-73
2023/10/16 04:14:56;;;;;;;4.60;1.75;;;4.10;99.90;;;;;;4997549;28;20022;-73
2023/10/16 04:17:26;;;;;;;3.78;2.22;;;4.10;99.90;;;;;;4997490;28;20031;-72
2023/10/16 04:19:52;;;;;;;3.78;1.67;;;4.00;99.90;;;;;;4997503;28;20097;-73
2023/10/16 04:22:25;;;;;;;4.60;2.10;;;3.90;99.90;;;;;;4997378;28;20380;-72
2023/10/16 04:24:54;;;;;;;4.32;2.72;;;3.90;99.90;;;;;;4997734;28;20471;-72
2023/10/16 04:29:49;;;;;;;5.07;2.92;;;3.90;99.90;;;;;;4997429;28;20417;-72
2023/10/16 04:35:04;;;;;;;3.17;1.40;;;3.90;99.90;;;;;;4997883;28;20046;-73
2023/10/16 04:37:29;;;;;;;3.13;1.40;;;3.90;99.90;;;;;;4997146;28;20081;-72
2023/10/16 04:45:24;;;;;;;3.20;1.67;;;4.00;99.90;;;;;;4997515;28;20042;-72
2023/10/16 04:50:37;;;;;;;3.10;1.65;;;4.00;99.90;;;;;;4996219;28;20105;-74
2023/10/16 05:00:57;;;;;;;2.58;1.60;;;4.10;99.90;;;;;;4996927;28;20364;-72
2023/10/16 05:03:24;;;;;;;3.40;2.15;;;4.10;99.90;;;;;;4997185;28;20034;-72
2023/10/16 05:06:04;;;;;;;4.75;2.20;;;4.10;99.90;;;;;;4996810;28;20034;-72
2023/10/16 05:08:49;;;;;;;3.60;1.92;;;4.10;99.90;;;;;;4996859;28;20038;-72
2023/10/16 05:13:55;;;;;;;3.92;2.13;;;4.10;99.90;;;;;;4996685;28;20414;-72
2023/10/16 05:16:38;;;;;;;4.18;2.63;;;4.10;99.90;;;;;;4996965;28;20462;-72
2023/10/16 05:19:17;;;;;;;6.63;2.92;;;4.10;99.90;;;;;;4981762;28;20031;-72
2023/10/16 06:16:20;;;;;;;7.47;3.22;;;3.80;99.90;;;;;;4976510;28;20041;-72
2023/10/16 06:18:47;;;;;;;8.48;4.45;;;3.80;99.90;;;;;;4976353;28;20026;-72
2023/10/16 06:21:14;;;;;;;6.55;3.30;;;3.80;99.90;;;;;;4976839;28;20500;-73
2023/10/16 06:23:49;;;;;;;7.70;3.70;;;3.70;99.90;;;;;;4994599;28;20149;-74
2023/10/16 06:26:21;;;;;;;7.72;3.08;;;3.70;99.90;;;;;;4977130;28;20031;-73
2023/10/16 06:28:49;;;;;;;5.53;3.13;;;3.70;99.90;;;;;;4996226;28;20027;-72
2023/10/16 06:31:25;;;;;;;10.32;4.20;;;3.70;99.90;;;;;;4995151;28;20030;-72
2023/10/16 06:33:56;;;;;;;8.07;3.22;;;3.70;99.90;;;;;;4995535;28;20034;-72
2023/10/16 06:36:23;;;;;;;5.82;4.15;;;3.60;99.90;;;;;;4995607;28;20034;-72
2023/10/16 06:38:51;;;;;;;6.63;4.15;;;3.60;99.90;;;;;;4995230;28;20035;-72
2023/10/16 06:41:21;;;;;;;8.95;3.67;;;3.60;99.90;;;;;;4995005;28;20030;-72
2023/10/16 06:43:49;;;;;;;6.97;4.13;;;3.60;99.90;;;;;;4977813;28;20073;-72
2023/10/16 06:46:25;;;;;;;10.23;4.25;;;3.50;99.90;;;;;;4994890;28;20089;-72
2023/10/16 06:48:52;;;;;;;7.53;3.90;;;3.40;99.90;;;;;;4994905;28;20027;-72
2023/10/16 06:51:25;;;;;;;7.95;3.92;;;3.40;99.90;;;;;;4995301;28;20030;-72
2023/10/16 06:53:52;;;;;;;5.80;3.60;;;3.50;99.90;;;;;;4996141;28;20030;-72
2023/10/16 06:56:30;;;;;;;4.70;3.20;;;3.50;99.90;;;;;;4977597;28;20045;-72
2023/10/16 06:58:57;;;;;;;7.40;3.72;;;3.50;99.90;;;;;;4979294;28;20471;-72
2023/10/16 07:01:25;;;;;;;8.13;3.63;;;3.50;99.90;;;;;;4994618;28;20066;-72
2023/10/16 07:03:54;;;;;;;5.90;3.80;;;3.40;99.90;;;;;;4977610;28;20073;-72
2023/10/16 07:06:24;;;;;;;5.32;3.47;;;3.40;99.90;;;;;;4994487;28;20082;-72
2023/10/16 07:08:52;;;;;;;5.78;2.97;;;3.40;99.90;;;;;;4994839;28;20097;-72
2023/10/16 07:11:19;;;;;;;5.70;3.05;;;3.40;99.90;;;;;;4994826;28;20030;-72
2023/10/16 07:13:44;;;;;;;5.03;2.70;;;3.40;99.90;;;;;;4994434;28;20034;-72
2023/10/16 07:16:10;;;;;;;6.70;3.53;;;3.40;99.90;;;;;;4994537;28;20037;-72
2023/10/16 07:18:42;;;;;;;8.07;3.88;;;3.40;99.90;;;;;;4977032;28;20031;-72
2023/10/16 07:21:08;;;;;;;9.13;3.50;;;3.40;99.90;;;;;;5078372;23;20095;-76
2023/10/16 07:23:35;;;;;;;6.22;3.67;;;3.30;99.90;;;;;;5034408;28;20396;-76
2023/10/16 07:26:06;;;;;;;7.40;3.78;;;3.40;99.90;;;;;;5034090;28;20029;-76
2023/10/16 07:28:32;;;;;;;5.63;3.30;;;3.50;99.90;;;;;;5033063;28;20036;-76
2023/10/16 07:31:05;;;;;;;6.43;3.97;;;3.50;99.90;;;;;;5026253;28;20026;-76
2023/10/16 07:33:32;;;;;;;7.43;3.97;;;3.60;99.90;;;;;;5013715;28;20461;-76
2023/10/16 07:35:59;;;;;;;8.02;4.05;;;3.50;99.90;;;;;;5013879;28;20036;-76
2023/10/16 07:38:26;;;;;;;9.63;4.53;;;3.60;99.90;;;;;;5014119;28;20022;-76
2023/10/16 07:40:56;;;;;;;8.68;3.92;;;3.60;99.90;;;;;;5014444;28;20026;-76
2023/10/16 07:43:27;;;;;;;5.90;3.60;;;3.60;99.90;;;;;;4996238;28;20032;-76
2023/10/16 07:46:16;;;;;;;6.55;4.07;;;3.60;99.90;;;;;;5013932;28;20381;-76
2023/10/16 07:48:45;;;;;;;6.93;3.72;;;3.60;99.90;;;;;;4999377;28;20461;-76
2023/10/16 07:51:12;;;;;;;8.27;3.92;;;3.70;99.90;;;;;;5013941;28;20425;-76
2023/10/16 07:53:38;;;;;;;5.45;3.50;;;3.80;99.90;;;;;;5013602;28;20050;-76
2023/10/16 07:56:25;;;;;;;7.53;3.38;;;3.70;99.90;;;;;;5013816;28;20393;-76
2023/10/16 07:58:56;;;;;;;9.93;4.03;;;3.80;99.90;;;;;;4996113;28;20549;-76
2023/10/16 08:04:06;;;;;;;6.32;3.42;;;3.80;99.90;;;;;;5013585;28;19999;-76
2023/10/16 08:06:35;;;;;;;7.43;4.88;;;3.90;99.90;;;;;;5013602;28;20030;-76
2023/10/16 08:11:46;;;;;;;7.88;5.28;;;4.00;99.90;;;;;;5013855;28;20040;-76
2023/10/16 08:14:13;;;;;;;11.02;5.90;;;4.00;99.90;;;;;;4995994;28;20030;-76
2023/10/16 08:16:39;;;;;;;10.02;5.00;;;4.10;99.90;;;;;;5013449;28;20022;-76
2023/10/16 08:19:14;;;;;;;10.60;5.15;;;4.10;99.90;;;;;;5013753;28;20069;-76
2023/10/16 08:21:42;;;;;;;9.02;5.55;;;4.20;99.90;;;;;;5013095;28;20026;-76
2023/10/16 08:24:15;;;;;;;10.48;5.38;;;4.30;99.90;;;;;;5013318;28;20029;-76
2023/10/16 08:26:43;;;;;;;12.55;5.75;;;4.40;99.90;;;;;;5013316;28;20026;-76
2023/10/16 08:29:20;;;;;;;9.75;5.80;;;4.50;99.90;;;;;;5013471;28;20050;-76
2023/10/16 08:31:47;;;;;;;10.23;6.47;;;4.60;99.90;;;;;;5013540;28;20060;-76
2023/10/16 08:34:21;;;;;;;9.73;5.20;;;4.70;99.90;;;;;;4995882;28;20536;-76
2023/10/16 08:36:50;;;;;;;10.82;5.68;;;4.80;99.90;;;;;;5013531;28;20034;-76
2023/10/16 08:39:17;;;;;;;9.20;5.05;;;4.90;99.90;;;;;;5013224;28;20026;-76
2023/10/16 08:41:45;;;;;;;11.27;5.68;;;4.90;99.90;;;;;;4995453;28;20109;-76
2023/10/16 08:44:21;;;;;;;9.02;5.40;;;5.00;99.90;;;;;;5014077;28;20533;-76
2023/10/16 08:49:24;;;;;;;13.02;5.07;;;5.10;99.90;;;;;;5016814;28;20018;-76
2023/10/16 08:51:54;;;;;;;8.95;4.47;;;5.20;99.90;;;;;;5017485;28;20458;-76
2023/10/16 08:54:45;;;;;;;7.47;4.78;;;5.30;99.90;;;;;;5016819;28;20030;-76
2023/10/16 08:57:22;;;;;;;11.50;5.63;;;5.40;99.90;;;;;;5017060;28;20022;-76
2023/10/16 08:59:50;;;;;;;6.70;4.10;;;5.50;99.90;;;;;;5017195;28;20037;-76
2023/10/16 09:02:17;;;;;;;5.85;3.97;;;5.60;99.90;;;;;;4998839;28;20034;-76
2023/10/16 09:04:44;;;;;;;8.50;4.30;;;5.70;99.90;;;;;;5017099;28;20022;-76
2023/10/16 09:07:19;;;;;;;8.05;3.60;;;5.80;99.90;;;;;;5016396;28;20482;-76
2023/10/16 09:09:48;;;;;;;8.63;4.53;;;5.90;99.90;;;;;;5016789;28;20038;-76
2023/10/16 09:12:24;;;;;;;9.32;3.92;;;6.00;99.90;;;;;;5016297;28;20030;-76
2023/10/16 09:14:51;;;;;;;7.18;4.50;;;6.00;99.90;;;;;;5016489;28;20096;-76
2023/10/16 09:17:21;;;;;;;6.00;4.18;;;6.10;99.90;;;;;;4999031;28;20053;-76
2023/10/16 09:19:48;;;;;;;7.70;4.00;;;6.20;99.90;;;;;;5016581;28;20061;-76
2023/10/16 09:22:15;;;;;;;6.10;3.38;;;6.30;99.90;;;;;;5016061;28;20026;-76
2023/10/16 09:24:45;;;;;;;6.00;3.70;;;6.50;99.90;;;;;;4999285;28;20034;-76
2023/10/16 09:27:22;;;;;;;8.60;3.97;;;6.50;99.90;;;;;;4998615;28;20429;-76
2023/10/16 09:29:54;;;;;;;8.00;3.60;;;6.70;99.90;;;;;;5016381;28;20037;-76
2023/10/16 09:32:34;;;;;;;5.70;2.90;;;6.80;99.90;;;;;;5016123;28;20037;-76
2023/10/16 09:35:05;;;;;;;8.13;3.15;;;6.90;99.90;;;;;;5016087;28;20034;-76
2023/10/16 09:37:37;;;;;;;4.45;2.88;;;7.10;99.90;;;;;;5016230;28;20038;-76
2023/10/16 09:43:05;;;;;;;4.15;2.25;;;7.40;99.90;;;;;;5016190;28;20577;-76
2023/10/16 09:45:33;;;;;;;6.50;2.75;;;7.50;99.90;;;;;;4999915;28;20082;-76
2023/10/16 09:48:08;;;;;;;6.80;2.50;;;7.60;99.90;;;;;;5015673;28;20018;-76
2023/10/16 09:50:38;;;;;;;5.70;2.63;;;7.70;99.90;;;;;;5015897;28;20028;-76
2023/10/16 09:53:07;;;;;;;4.90;2.28;;;7.80;99.90;;;;;;4998054;28;20092;-76
2023/10/16 09:55:44;;;;;;;4.60;2.00;;;7.80;99.90;;;;;;5015527;28;20049;-76
2023/10/16 09:58:11;;;;;;;6.63;2.33;;;8.00;99.90;;;;;;5015541;28;20032;-76
2023/10/16 10:00:40;;;;;;;3.83;2.47;;;8.00;99.90;;;;;;5015472;28;20069;-76
2023/10/16 10:03:07;;;;;;;5.00;2.15;;;8.10;99.90;;;;;;5015309;28;20489;-76
2023/10/16 10:05:55;;;;;;;5.28;2.33;;;8.10;99.90;;;;;;5015382;28;20117;-76
2023/10/16 10:09:21;;;;;;;4.30;2.00;;;8.20;99.90;;;;;;5015582;28;20452;-76
2023/10/16 10:11:43;;;;;;;3.83;1.92;;;8.30;99.90;;;;;;5007024;28;20065;-76
2023/10/16 10:16:56;;;;;;;3.40;1.15;;;8.60;99.90;;;;;;5015464;28;20113;-76
2023/10/16 10:19:35;;;;;;;2.53;0.95;;;8.60;99.90;;;;;;4997561;28;20025;-76
2023/10/16 10:22:15;;;;;;;3.05;0.98;;;8.70;99.90;;;;;;5014918;28;20026;-76
2023/10/16 10:24:51;;;;;;;3.35;1.17;;;8.80;99.90;;;;;;5015064;28;20037;-76
2023/10/16 10:27:17;;;;;;;3.47;1.40;;;8.90;99.90;;;;;;5015233;28;20101;-76
2023/10/16 10:29:49;;;;;;;4.65;1.45;;;9.00;99.90;;;;;;5015265;28;20040;-76
2023/10/16 10:32:15;;;;;;;3.75;1.30;;;9.00;99.90;;;;;;5015079;28;20029;-76
2023/10/16 10:34:44;;;;;;;3.92;1.48;;;9.10;99.90;;;;;;5014792;28;20029;-75
2023/10/16 10:37:48;;;;;;;3.72;1.30;;;9.30;99.90;;;;;;5015354;28;20478;-75
2023/10/16 10:40:24;;;;;;;3.83;1.85;;;9.40;99.90;;;;;;5014959;28;20025;-75
2023/10/16 10:42:56;;;;;;;3.20;1.60;;;9.50;99.90;;;;;;5014947;28;20141;-76
2023/10/16 10:45:34;;;;;;;2.92;1.60;;;9.60;99.90;;;;;;5014724;28;20022;-75
2023/10/16 10:48:06;;;;;;;4.57;1.58;;;9.70;99.90;;;;;;4995249;28;20093;-75
2023/10/16 10:50:38;;;;;;;3.55;1.27;;;9.80;99.90;;;;;;4978731;28;20390;-75
2023/10/16 10:53:13;;;;;;;3.92;1.42;;;9.80;99.90;;;;;;4995008;28;20022;-75
2023/10/16 10:55:52;;;;;;;4.18;1.42;;;9.90;98.90;;;;;;4994410;28;20018;-74
2023/10/16 10:58:20;;;;;;;3.67;1.30;;;10.00;99.90;;;;;;5006042;28;20026;-75
2023/10/16 11:01:01;;;;;;;2.75;1.30;;;10.00;99.20;;;;;;5011374;28;20030;-75
2023/10/16 11:03:33;;;;;;;2.90;1.48;;;10.10;98.90;;;;;;4997579;28;20037;-75
2023/10/16 11:05:59;;;;;;;3.30;1.27;;;10.20;99.70;;;;;;4994693;28;20105;-75
2023/10/16 11:08:29;;;;;;;3.70;1.60;;;10.20;99.70;;;;;;5013694;28;20390;-75
2023/10/16 11:10:56;;;;;;;2.35;1.42;;;10.30;99.20;;;;;;5013864;28;20034;-74
2023/10/16 11:13:22;;;;;;;6.85;2.03;;;10.40;99.60;;;;;;5014163;28;20025;-74
2023/10/16 11:15:54;;;;;;;2.78;1.60;;;10.50;99.90;;;;;;5014273;28;20056;-75
2023/10/16 11:18:28;;;;;;;2.72;1.20;;;10.50;99.20;;;;;;5008622;28;20100;-75
2023/10/16 11:20:54;;;;;;;8.73;1.80;;;10.60;97.40;;;;;;4996562;28;20064;-75
2023/10/16 11:23:31;;;;;;;4.85;1.92;;;10.60;96.90;;;;;;5014571;28;20048;-75
2023/10/16 11:25:58;;;;;;;4.47;1.55;;;10.60;97.30;;;;;;5015232;28;20037;-74
2023/10/16 11:28:36;;;;;;;4.13;1.60;;;10.70;97.40;;;;;;5014453;28;20025;-74
2023/10/16 11:31:09;;;;;;;2.83;1.48;;;10.80;98.30;;;;;;5014235;28;20026;-74
2023/10/16 11:33:45;;;;;;;5.20;1.73;;;10.80;97.80;;;;;;4997410;28;20026;-74
2023/10/16 11:36:20;;;;;;;4.18;1.52;;;10.90;96.50;;;;;;5009501;28;20030;-74
2023/10/16 11:38:47;;;;;;;4.53;1.60;;;10.90;97.40;;;;;;5013713;28;20052;-74
2023/10/16 11:41:16;;;;;;;3.75;1.40;;;11.00;97.60;;;;;;5013208;28;20056;-73
2023/10/16 11:43:51;;;;;;;2.83;1.20;;;11.10;96.40;;;;;;5013711;28;20362;-74
2023/10/16 11:46:44;;;;;;;2.35;0.73;;;11.10;96.80;;;;;;4996421;28;20065;-73
2023/10/16 11:49:22;;;;;;;2.25;0.70;;;11.20;95.40;;;;;;5012379;28;20029;-74
2023/10/16 11:51:51;;;;;;;2.88;0.80;;;11.30;95.40;;;;;;5013283;28;20025;-74
2023/10/16 11:54:23;;;;;;;1.67;0.70;;;11.30;94.20;;;;;;5004648;28;20371;-74
2023/10/16 11:56:56;;;;;;;2.25;0.80;;;11.20;94.10;;;;;;5015207;28;20505;-74
2023/10/16 11:59:24;;;;;;;2.30;0.75;;;11.20;94.30;;;;;;5015977;28;20441;-74
2023/10/16 12:01:51;;;;;;;1.67;0.70;;;11.20;95.00;;;;;;5015924;28;20038;-74
2023/10/16 12:04:19;;;;;;;2.50;0.65;;;11.30;93.90;;;;;;5014074;28;20052;-75
2023/10/16 12:06:47;;;;;;;2.70;0.80;;;11.30;95.80;;;;;;5009693;28;20019;-74
2023/10/16 12:09:13;;;;;;;2.42;0.80;;;11.30;95.80;;;;;;5014719;28;20018;-74
2023/10/16 12:11:44;;;;;;;2.03;0.82;;;11.40;95.50;;;;;;5013450;28;20052;-73
2023/10/16 12:14:16;;;;;;;4.10;0.93;;;11.50;96.90;;;;;;5014153;28;20030;-73
2023/10/16 12:16:45;;;;;;;2.17;1.02;;;11.60;97.80;;;;;;5011968;28;20497;-74
2023/10/16 12:19:15;;;;;;;2.42;0.90;;;11.80;98.60;;;;;;5015179;28;20449;-74
2023/10/16 12:21:48;;;;;;;4.28;0.70;;;12.00;96.50;;;;;;5001467;28;20034;-74
2023/10/16 12:24:16;;;;;;;3.20;1.10;;;12.10;97.70;;;;;;5018818;28;20030;-74
2023/10/16 12:26:42;;;;;;;3.15;1.23;;;12.20;96.80;;;;;;5018852;28;20050;-73
2023/10/16 12:29:08;;;;;;;4.00;1.50;;;12.30;96.60;;;;;;5000571;28;20034;-74
2023/10/16 12:31:39;;;;;;;1.80;0.75;;;12.30;95.30;;;;;;5017773;28;20033;-73
2023/10/16 12:34:05;;;;;;;2.38;1.00;;;12.40;94.50;;;;;;5017165;28;20486;-73
2023/10/16 12:36:32;;;;;;;2.55;0.80;;;12.40;94.30;;;;;;5014737;28;20121;-73
2023/10/16 12:38:59;;;;;;;3.67;1.00;;;12.40;95.90;;;;;;5016951;28;20026;-73
2023/10/16 12:41:25;;;;;;;2.00;0.80;;;12.50;94.60;;;;;;5016677;28;20101;-73
2023/10/16 12:43:50;;;;;;;1.52;0.80;;;12.60;94.40;;;;;;4999749;28;20109;-73
2023/10/16 12:46:17;;;;;;;2.60;0.75;;;12.60;94.30;;;;;;5016912;28;20034;-73
2023/10/16 12:48:44;;;;;;;4.00;0.80;;;12.70;94.80;;;;;;5016712;28;20026;-73
2023/10/16 12:51:10;;;;;;;1.90;0.63;;;12.80;95.00;;;;;;5016614;28;20069;-73
2023/10/16 12:53:41;;;;;;;3.40;0.77;;;12.80;92.80;;;;;;5016733;28;20425;-73
2023/10/16 12:56:07;;;;;;;2.13;0.68;;;12.80;92.60;;;;;;5016352;28;20041;-73
2023/10/16 12:58:33;;;;;;;1.83;0.60;;;12.90;92.40;;;;;;5016529;28;20034;-73
2023/10/16 13:01:10;;;;;;;3.70;0.60;;;13.00;93.50;;;;;;5016360;28;20478;-73
2023/10/16 13:03:36;;;;;;;1.52;0.60;;;13.20;94.70;;;;;;5016533;28;20030;-73
2023/10/16 13:06:05;;;;;;;3.80;0.93;;;13.30;91.30;;;;;;5011739;28;20026;-73
2023/10/16 13:08:32;;;;;;;2.10;0.52;;;13.30;91.00;;;;;;5016273;28;20413;-73
2023/10/16 13:10:59;;;;;;;1.95;0.60;;;13.30;90.30;;;;;;5015907;28;20030;-73
2023/10/16 13:13:25;;;;;;;2.38;0.80;;;13.30;91.60;;;;;;5016875;28;20026;-73
2023/10/16 13:15:51;;;;;;;2.72;0.73;;;13.40;90.70;;;;;;5016265;28;20033;-73
2023/10/16 13:18:26;;;;;;;1.45;0.70;;;13.40;90.90;;;;;;5016173;28;20041;-73
2023/10/16 13:21:14;;;;;;;3.20;0.70;;;13.40;91.00;;;;;;5015767;28;20038;-73
2023/10/16 13:23:40;;;;;;;2.58;0.70;;;13.40;90.50;;;;;;5015587;28;20037;-73
2023/10/16 13:26:09;;;;;;;1.83;0.70;;;13.40;89.60;;;;;;5015887;28;20034;-71
2023/10/16 13:28:41;;;;;;;1.70;0.70;;;13.40;89.40;;;;;;5014868;28;20123;-71
2023/10/16 13:31:08;;;;;;;1.52;0.60;;;13.40;90.80;;;;;;5015284;28;20030;-71
2023/10/16 13:33:34;;;;;;;1.50;0.68;;;13.50;89.20;;;;;;5015956;28;20548;-70
2023/10/16 13:36:04;;;;;;;1.85;0.70;;;13.50;89.40;;;;;;5015849;28;20488;-70
2023/10/16 13:38:31;;;;;;;2.05;0.90;;;13.60;89.80;;;;;;5015396;28;20033;-70
2023/10/16 13:40:57;;;;;;;2.17;0.73;;;13.60;89.50;;;;;;4998272;28;20034;-70
2023/10/16 13:43:23;;;;;;;1.52;0.70;;;13.60;90.50;;;;;;5015900;28;20026;-70
2023/10/16 13:45:52;;;;;;;2.10;0.60;;;13.60;90.30;;;;;;5016042;28;20018;-70
2023/10/16 13:48:21;;;;;;;1.83;0.63;;;13.60;90.00;;;;;;5015731;28;20044;-70
2023/10/16 13:50:47;;;;;;;1.42;0.70;;;13.60;90.80;;;;;;5015860;28;20026;-70
2023/10/16 13:53:13;;;;;;;1.95;0.75;;;13.70;90.10;;;;;;5015989;28;20072;-70
2023/10/16 13:55:39;;;;;;;3.55;0.70;;;13.80;89.20;;;;;;4998243;28;20053;-70
2023/10/16 13:58:05;;;;;;;2.70;0.73;;;13.80;90.10;;;;;;4998024;28;20559;-70
2023/10/16 14:00:35;;;;;;;3.05;0.90;;;13.90;89.90;;;;;;5015417;28;20030;-71
2023/10/16 14:03:09;;;;;;;1.88;0.65;;;14.00;87.90;;;;;;5015625;28;20041;-70
2023/10/16 14:05:50;;;;;;;1.60;0.75;;;14.00;86.90;;;;;;5015529;28;20026;-70
2023/10/16 14:08:17;;;;;;;1.40;0.60;;;14.00;88.10;;;;;;5015462;28;20125;-70
2023/10/16 14:11:03;;;;;;;3.78;0.70;;;13.90;86.80;;;;;;5015486;28;20022;-70
2023/10/16 14:13:32;;;;;;;1.95;0.73;;;13.80;85.50;;;;;;4997653;28;20120;-70
2023/10/16 14:16:09;;;;;;;1.73;0.68;;;13.80;86.30;;;;;;5015201;28;20026;-70
2023/10/16 14:18:35;;;;;;;2.35;0.68;;;13.80;85.70;;;;;;5013358;28;20511;-70
2023/10/16 14:21:08;;;;;;;2.78;0.75;;;13.70;87.40;;;;;;4997060;28;20132;-71
2023/10/16 14:23:34;;;;;;;1.83;0.55;;;13.70;86.40;;;;;;5014845;28;20430;-71
2023/10/16 14:26:00;;;;;;;3.83;1.00;;;13.70;86.40;;;;;;5014946;28;20058;-70
2023/10/16 14:28:34;;;;;;;3.45;0.70;;;13.70;86.60;;;;;;5014689;28;20049;-69
2023/10/16 14:31:09;;;;;;;1.90;0.70;;;13.70;87.00;;;;;;5015329;28;20080;-70
2023/10/16 14:33:39;;;;;;;1.50;0.60;;;13.70;85.90;;;;;;5014894;28;20014;-70
2023/10/16 14:36:08;;;;;;;2.05;0.63;;;13.80;85.70;;;;;;5006447;28;20551;-70
2023/10/16 14:38:34;;;;;;;1.52;0.70;;;13.80;85.20;;;;;;4995155;28;20035;-69
2023/10/16 14:41:04;;;;;;;2.75;0.70;;;13.80;84.90;;;;;;4978216;28;20046;-69
2023/10/16 14:43:33;;;;;;;2.38;0.68;;;13.80;85.40;;;;;;4994417;28;20474;-69
2023/10/16 14:46:00;;;;;;;1.42;0.63;;;13.80;86.50;;;;;;4995062;28;20014;-69